Time;durP1;ratioP1;P1;durP2;ratioP2;P2;SDS_P1;SDS_P2;PMS_P1;PMS_P2;Temp;Humidity;BMP_temperature;BMP_pressure;BME280_temperature;BME280_humidity;BME280_pressure;Samples;Min_cycle;Max_cycle;Signal;HPM_P1;HPM_P2
2021/11/12 00:02:14;;;;;;;4.95;2.70;;;3.80;98.80;;;;;;5016632;28;20037;-86
2021/11/12 00:12:46;;;;;;;6.65;3.00;;;3.70;98.90;;;;;;5016552;28;20041;-86
2021/11/12 00:15:12;;;;;;;7.07;3.40;;;3.70;99.00;;;;;;4998806;28;20037;-86
2021/11/12 00:17:40;;;;;;;4.40;2.78;;;3.70;99.00;;;;;;5015863;28;20034;-85
2021/11/12 00:20:07;;;;;;;5.07;2.15;;;3.70;99.00;;;;;;4998972;28;20045;-86
2021/11/12 00:22:34;;;;;;;4.22;3.20;;;3.70;99.00;;;;;;4998514;28;20050;-86
2021/11/12 00:25:02;;;;;;;4.22;2.45;;;3.70;99.10;;;;;;4998365;28;20018;-85
2021/11/12 00:27:29;;;;;;;4.75;2.42;;;3.70;99.10;;;;;;4998234;28;20029;-86
2021/11/12 00:30:22;;;;;;;5.00;2.53;;;3.70;99.20;;;;;;5015663;28;20129;-86
2021/11/12 00:35:45;;;;;;;5.22;3.58;;;3.70;99.30;;;;;;5015775;28;20026;-86
2021/11/12 00:43:15;;;;;;;4.57;2.75;;;3.60;99.40;;;;;;5015709;28;20026;-86
2021/11/12 00:45:53;;;;;;;6.55;3.35;;;3.70;99.60;;;;;;4998511;28;20062;-86
2021/11/12 00:48:25;;;;;;;5.35;2.63;;;3.60;99.50;;;;;;5015484;28;20030;-86
2021/11/12 00:51:38;;;;;;;7.95;2.60;;;3.60;99.50;;;;;;4997984;28;20364;-86
2021/11/12 00:54:25;;;;;;;6.10;3.17;;;3.60;99.60;;;;;;5004549;28;20038;-86
2021/11/12 00:56:28;;;;;;;5.55;2.90;;;3.60;99.60;;;;;;5001538;28;20049;-86
2021/11/12 00:58:57;;;;;;;4.65;2.85;;;3.60;99.90;;;;;;5015193;28;20022;-86
2021/11/12 01:01:25;;;;;;;5.05;2.58;;;3.60;99.80;;;;;;4997720;28;20390;-86
2021/11/12 01:03:52;;;;;;;4.75;2.65;;;3.60;99.80;;;;;;5015467;28;20029;-85
2021/11/12 01:06:18;;;;;;;6.28;3.75;;;3.60;99.90;;;;;;5015207;28;20029;-86
2021/11/12 01:08:44;;;;;;;4.55;3.08;;;3.50;99.90;;;;;;4997670;28;20049;-86
2021/11/12 01:11:11;;;;;;;7.30;3.30;;;3.50;99.90;;;;;;5015155;28;20088;-86
2021/11/12 01:13:38;;;;;;;8.55;3.80;;;3.50;99.90;;;;;;4997363;28;20041;-86
2021/11/12 01:16:05;;;;;;;6.63;3.97;;;3.50;99.90;;;;;;4997373;28;20462;-86
2021/11/12 01:18:34;;;;;;;7.43;4.22;;;3.50;99.90;;;;;;4997512;28;20030;-86
2021/11/12 01:21:00;;;;;;;7.32;3.50;;;3.50;99.90;;;;;;5014804;28;20077;-86
2021/11/12 01:23:25;;;;;;;5.43;2.95;;;3.50;99.90;;;;;;4997196;28;20056;-86
2021/11/12 01:25:51;;;;;;;4.70;2.50;;;3.40;99.90;;;;;;5014806;28;20102;-86
2021/11/12 01:28:17;;;;;;;6.82;3.15;;;3.40;99.90;;;;;;4997001;28;20076;-86
2021/11/12 01:30:43;;;;;;;6.00;2.70;;;3.40;99.90;;;;;;4997119;28;20026;-86
2021/11/12 01:33:09;;;;;;;5.40;3.03;;;3.40;99.90;;;;;;5015029;28;20026;-86
2021/11/12 01:35:34;;;;;;;8.57;3.35;;;3.40;99.90;;;;;;5014679;28;20030;-86
2021/11/12 01:38:01;;;;;;;4.43;2.88;;;3.30;99.90;;;;;;4997152;28;20038;-85
2021/11/12 01:40:29;;;;;;;5.55;3.45;;;3.30;99.90;;;;;;5015012;28;20092;-86
2021/11/12 01:43:23;;;;;;;3.72;2.95;;;3.30;99.90;;;;;;5014490;28;20049;-86
2021/11/12 01:51:49;;;;;;;7.97;3.50;;;3.30;99.90;;;;;;5014482;28;20038;-86
2021/11/12 01:53:47;;;;;;;6.57;3.83;;;3.30;99.90;;;;;;4997062;28;20096;-86
2021/11/12 02:01:35;;;;;;;10.13;3.75;;;3.20;99.90;;;;;;5014031;28;20022;-86
2021/11/12 02:04:02;;;;;;;7.22;3.72;;;3.20;99.90;;;;;;5014415;28;20018;-86
2021/11/12 02:06:27;;;;;;;7.68;3.25;;;3.20;99.90;;;;;;5014416;28;20040;-85
2021/11/12 02:08:55;;;;;;;5.00;2.70;;;3.20;99.90;;;;;;5013884;28;20042;-86
2021/11/12 02:11:21;;;;;;;6.78;3.50;;;3.20;99.90;;;;;;4996641;28;20385;-86
2021/11/12 02:13:49;;;;;;;10.00;2.65;;;3.20;99.90;;;;;;4996503;28;20050;-85
2021/11/12 02:16:30;;;;;;;5.93;3.03;;;3.20;99.90;;;;;;4996397;28;20125;-86
2021/11/12 02:18:56;;;;;;;4.75;2.75;;;3.20;99.90;;;;;;4996291;28;20034;-86
2021/11/12 02:21:33;;;;;;;5.55;3.45;;;3.20;99.90;;;;;;4996383;28;20042;-86
2021/11/12 02:24:12;;;;;;;5.43;2.65;;;3.20;99.90;;;;;;4996489;28;20029;-86
2021/11/12 02:26:48;;;;;;;6.30;3.03;;;3.20;99.90;;;;;;5013732;28;20021;-86
2021/11/12 02:29:16;;;;;;;8.73;3.45;;;3.20;99.90;;;;;;4996500;28;20026;-86
2021/11/12 02:31:42;;;;;;;6.32;4.10;;;3.20;99.90;;;;;;4995401;28;20428;-86
2021/11/12 02:34:14;;;;;;;5.60;3.33;;;3.20;99.90;;;;;;4996247;28;20037;-85
2021/11/12 02:36:40;;;;;;;9.55;4.18;;;3.20;99.90;;;;;;4996301;28;20041;-86
2021/11/12 02:39:09;;;;;;;6.35;3.67;;;3.20;99.90;;;;;;5013554;28;20029;-85
2021/11/12 02:41:37;;;;;;;5.78;3.05;;;3.10;99.90;;;;;;4996361;28;20052;-85
2021/11/12 02:44:03;;;;;;;5.88;3.63;;;3.10;99.90;;;;;;4996634;28;20392;-86
2021/11/12 02:46:29;;;;;;;4.60;2.53;;;3.10;99.90;;;;;;4996019;28;20069;-86
2021/11/12 02:48:57;;;;;;;6.53;2.63;;;3.10;99.90;;;;;;5013841;28;20098;-86
2021/11/12 02:51:30;;;;;;;5.85;3.00;;;3.10;99.90;;;;;;5013712;28;20535;-85
2021/11/12 02:54:00;;;;;;;6.35;3.72;;;3.10;99.90;;;;;;4996895;28;20029;-86
2021/11/12 02:56:29;;;;;;;3.13;2.70;;;3.10;99.90;;;;;;4996371;28;20382;-85
2021/11/12 02:59:04;;;;;;;4.88;3.15;;;3.10;99.90;;;;;;5013618;28;20022;-85
2021/11/12 03:01:35;;;;;;;5.72;3.00;;;3.10;99.90;;;;;;5013282;28;20157;-86
2021/11/12 03:04:01;;;;;;;5.20;3.03;;;3.00;99.90;;;;;;4995847;28;20033;-86
2021/11/12 03:06:28;;;;;;;5.90;3.97;;;3.00;99.90;;;;;;4996003;28;20116;-85
2021/11/12 03:09:01;;;;;;;7.07;3.60;;;3.00;99.90;;;;;;4996021;28;20022;-85
2021/11/12 03:11:27;;;;;;;4.18;2.63;;;3.00;99.90;;;;;;4995921;28;20072;-86
2021/11/12 03:13:53;;;;;;;6.20;3.33;;;2.90;99.90;;;;;;4996270;28;20034;-85
2021/11/12 03:16:20;;;;;;;6.72;3.45;;;2.90;99.90;;;;;;4995975;28;20397;-86
2021/11/12 03:18:46;;;;;;;7.18;3.25;;;2.90;99.90;;;;;;4996014;28;20385;-86
2021/11/12 03:21:15;;;;;;;3.78;2.50;;;2.90;99.90;;;;;;4995733;28;20100;-86
2021/11/12 03:23:56;;;;;;;7.32;3.38;;;2.90;99.90;;;;;;4996177;28;20029;-86
2021/11/12 03:26:48;;;;;;;6.53;3.97;;;2.90;99.90;;;;;;4996332;28;20120;-86
2021/11/12 04:04:22;;;;;;;5.13;3.60;;;2.70;99.90;;;;;;4996731;28;19906;-85
2021/11/12 04:06:57;;;;;;;10.88;4.10;;;2.70;99.90;;;;;;4996236;28;20025;-86
2021/11/12 04:20:16;;;;;;;6.20;3.53;;;2.60;99.90;;;;;;4996440;28;20405;-85
2021/11/12 05:47:03;;;;;;;10.73;4.47;;;2.80;99.90;;;;;;4994903;28;20176;-86
2021/11/12 05:52:13;;;;;;;9.60;4.20;;;2.90;99.90;;;;;;4994128;28;20515;-86
2021/11/12 05:57:23;;;;;;;11.20;4.78;;;3.00;99.90;;;;;;4993827;28;20158;-85
2021/11/12 05:59:49;;;;;;;12.90;5.65;;;3.10;99.90;;;;;;4994026;28;20035;-85
2021/11/12 06:02:16;;;;;;;7.82;4.18;;;3.20;99.90;;;;;;4994673;28;20022;-85
2021/11/12 06:04:42;;;;;;;7.82;4.32;;;3.20;99.90;;;;;;4993909;28;20027;-85
2021/11/12 06:07:08;;;;;;;12.93;3.90;;;3.30;99.90;;;;;;4976257;28;20103;-85
2021/11/12 06:09:35;;;;;;;7.30;4.18;;;3.40;99.90;;;;;;4993434;28;20054;-85
2021/11/12 06:12:01;;;;;;;8.07;4.60;;;3.40;99.90;;;;;;4976380;28;20049;-85
2021/11/12 06:14:28;;;;;;;9.88;5.10;;;3.50;99.90;;;;;;4976040;28;20041;-85
2021/11/12 06:16:55;;;;;;;9.10;4.53;;;3.60;99.90;;;;;;4975987;28;20038;-85
2021/11/12 06:19:21;;;;;;;6.72;4.15;;;3.60;99.90;;;;;;4992362;28;20121;-85
2021/11/12 06:21:48;;;;;;;13.43;4.95;;;3.70;99.90;;;;;;4993751;28;20090;-85
2021/11/12 06:24:14;;;;;;;7.97;5.30;;;3.80;99.90;;;;;;4975377;28;20041;-85
2021/11/12 06:26:40;;;;;;;12.70;7.18;;;3.90;99.90;;;;;;4976133;28;20030;-85
2021/11/12 06:29:08;;;;;;;12.43;5.35;;;4.00;99.90;;;;;;4976016;28;20026;-85
2021/11/12 06:31:34;;;;;;;10.52;5.93;;;4.10;99.90;;;;;;4993430;28;20022;-85
2021/11/12 06:33:59;;;;;;;10.88;5.80;;;4.20;99.90;;;;;;4980925;28;20022;-85
2021/11/12 06:36:26;;;;;;;10.00;7.13;;;4.30;99.90;;;;;;4995113;28;20037;-85
2021/11/12 06:38:53;;;;;;;12.15;6.28;;;4.40;99.90;;;;;;4995228;28;20077;-85
2021/11/12 06:44:27;;;;;;;14.95;7.28;;;4.60;99.90;;;;;;5012689;28;20499;-85
2021/11/12 06:52:16;;;;;;;12.35;6.40;;;4.80;99.90;;;;;;5013156;28;20044;-85
2021/11/12 06:54:44;;;;;;;16.48;6.75;;;4.90;99.90;;;;;;5012801;28;20122;-85
2021/11/12 06:57:10;;;;;;;15.23;8.30;;;4.90;99.90;;;;;;4994863;28;20062;-85
2021/11/12 06:59:35;;;;;;;9.18;5.72;;;4.90;99.90;;;;;;4994486;28;20441;-84
2021/11/12 07:02:01;;;;;;;15.05;6.93;;;5.00;99.90;;;;;;5012354;28;20426;-85
2021/11/12 07:04:27;;;;;;;11.80;6.93;;;5.10;99.90;;;;;;5012369;28;20022;-85
2021/11/12 07:06:53;;;;;;;16.83;7.70;;;5.30;99.90;;;;;;4995089;28;20054;-85
2021/11/12 07:09:19;;;;;;;11.93;6.78;;;5.30;99.90;;;;;;4994511;28;20037;-86
2021/11/12 07:11:45;;;;;;;11.20;6.80;;;5.40;99.60;;;;;;4994633;28;20037;-85
2021/11/12 07:14:10;;;;;;;13.10;7.70;;;5.50;99.50;;;;;;4994660;28;20030;-84
2021/11/12 07:16:36;;;;;;;13.10;6.88;;;5.60;99.60;;;;;;5012397;28;20038;-84
2021/11/12 07:19:02;;;;;;;9.73;6.70;;;5.80;99.10;;;;;;4997328;28;20026;-85
2021/11/12 07:21:29;;;;;;;16.83;9.05;;;5.90;98.90;;;;;;4998098;28;20107;-84
2021/11/12 07:23:55;;;;;;;12.75;7.38;;;5.90;98.40;;;;;;4997868;28;20033;-84
2021/11/12 07:26:21;;;;;;;10.98;7.28;;;6.00;98.20;;;;;;5015385;28;20030;-84
2021/11/12 07:28:49;;;;;;;9.02;6.00;;;6.00;98.40;;;;;;5015062;28;20112;-85
2021/11/12 07:31:19;;;;;;;10.52;6.97;;;6.10;98.40;;;;;;4998475;28;20033;-84
2021/11/12 07:33:46;;;;;;;20.52;8.73;;;6.20;98.50;;;;;;4998623;28;20049;-85
2021/11/12 07:38:57;;;;;;;12.10;6.10;;;6.40;98.10;;;;;;5014960;28;20030;-84
2021/11/12 07:44:38;;;;;;;13.13;8.15;;;6.70;97.60;;;;;;4954582;28;20035;-85
2021/11/12 07:47:16;;;;;;;12.50;6.60;;;6.80;96.70;;;;;;4939019;29;20035;-85
2021/11/12 07:49:44;;;;;;;15.02;6.80;;;6.90;96.80;;;;;;4975842;28;20115;-85
2021/11/12 07:52:11;;;;;;;9.73;6.70;;;7.00;96.70;;;;;;4998192;28;20113;-85
2021/11/12 07:54:39;;;;;;;14.93;7.13;;;7.10;96.60;;;;;;4998182;28;20030;-85
2021/11/12 07:57:05;;;;;;;12.68;7.18;;;7.20;96.20;;;;;;4997803;28;20069;-85
2021/11/12 07:59:31;;;;;;;16.83;7.38;;;7.20;95.70;;;;;;4997610;28;20022;-85
2021/11/12 08:01:57;;;;;;;12.63;8.00;;;7.30;95.40;;;;;;5015226;28;20026;-85
2021/11/12 08:04:24;;;;;;;11.25;6.65;;;7.40;95.10;;;;;;4997658;28;20362;-86
2021/11/12 08:06:52;;;;;;;10.90;6.90;;;7.40;94.80;;;;;;4997484;28;20030;-85
2021/11/12 08:09:20;;;;;;;11.23;6.53;;;7.40;94.70;;;;;;4989053;28;20035;-86
2021/11/12 08:11:51;;;;;;;20.90;7.90;;;7.50;94.90;;;;;;4993243;28;20026;-87
2021/11/12 08:27:07;;;;;;;13.13;8.07;;;7.80;94.00;;;;;;5014904;28;20029;-84
2021/11/12 08:32:29;;;;;;;14.55;6.95;;;8.00;92.80;;;;;;5014005;28;20046;-86
2021/11/12 08:35:10;;;;;;;10.70;6.65;;;8.10;93.10;;;;;;5014377;28;20389;-85
2021/11/12 08:37:47;;;;;;;10.10;6.43;;;8.20;93.10;;;;;;4984695;28;20061;-86
2021/11/12 08:40:38;;;;;;;16.70;8.55;;;8.30;92.90;;;;;;4993227;28;21543;-85
2021/11/12 08:45:38;;;;;;;12.20;7.35;;;8.50;92.00;;;;;;4994816;28;20038;-86
2021/11/12 08:48:06;;;;;;;11.68;7.47;;;8.50;91.50;;;;;;5004565;28;20053;-86
2021/11/12 08:50:33;;;;;;;10.88;7.70;;;8.50;91.50;;;;;;4991692;28;20399;-85
2021/11/12 08:53:07;;;;;;;13.63;8.55;;;8.60;91.90;;;;;;5000781;28;20078;-87
2021/11/12 08:55:35;;;;;;;12.02;8.27;;;8.70;92.00;;;;;;4991315;28;20041;-87
2021/11/12 08:58:06;;;;;;;10.57;7.05;;;8.80;90.80;;;;;;5008143;28;20046;-88
2021/11/12 09:00:34;;;;;;;15.25;9.07;;;8.80;90.50;;;;;;4993935;28;20064;-86
2021/11/12 09:03:01;;;;;;;12.35;6.88;;;8.80;90.50;;;;;;4991634;28;20113;-84
2021/11/12 09:05:31;;;;;;;11.13;6.93;;;8.80;90.50;;;;;;5011518;28;20036;-86
2021/11/12 09:07:57;;;;;;;13.63;8.88;;;8.90;90.60;;;;;;4991333;28;20112;-86
2021/11/12 09:10:25;;;;;;;11.63;7.90;;;9.00;90.40;;;;;;4991024;28;20034;-86
2021/11/12 09:12:57;;;;;;;16.48;8.90;;;9.10;90.20;;;;;;4991910;28;20124;-86
2021/11/12 09:15:32;;;;;;;12.70;8.15;;;9.10;88.80;;;;;;4991525;28;20034;-88
2021/11/12 09:18:02;;;;;;;13.57;8.27;;;9.10;88.60;;;;;;4994275;28;20452;-85
2021/11/12 09:20:32;;;;;;;12.68;7.32;;;9.10;89.30;;;;;;4989388;28;20034;-86
2021/11/12 09:22:59;;;;;;;12.45;7.85;;;9.20;89.80;;;;;;4991856;28;20092;-88
2021/11/12 09:25:25;;;;;;;12.48;7.57;;;9.30;89.20;;;;;;5011328;28;20026;-88
2021/11/12 09:27:52;;;;;;;12.00;7.88;;;9.40;89.80;;;;;;4993622;28;20033;-87
2021/11/12 09:30:22;;;;;;;14.60;8.13;;;9.50;89.00;;;;;;4992907;28;20051;-87
2021/11/12 09:32:50;;;;;;;13.02;7.30;;;9.60;88.50;;;;;;4998343;28;20038;-86
2021/11/12 09:35:15;;;;;;;13.32;8.07;;;9.70;88.10;;;;;;4994029;28;20040;-87
2021/11/12 09:37:41;;;;;;;14.23;8.38;;;9.70;87.60;;;;;;4994891;28;20037;-86
2021/11/12 09:40:07;;;;;;;13.95;7.65;;;9.80;87.40;;;;;;4991777;28;20404;-87
2021/11/12 09:42:35;;;;;;;18.20;9.55;;;9.90;87.40;;;;;;4988768;28;20034;-87
2021/11/12 09:45:05;;;;;;;17.27;10.73;;;9.90;86.40;;;;;;4992475;28;20030;-87
2021/11/12 09:47:32;;;;;;;19.85;10.30;;;10.00;84.50;;;;;;4992323;28;20121;-87
2021/11/12 09:50:01;;;;;;;15.43;9.65;;;9.90;84.10;;;;;;5008939;28;20041;-85
2021/11/12 09:52:32;;;;;;;14.10;9.18;;;9.90;85.30;;;;;;5012144;28;20057;-88
2021/11/12 09:54:58;;;;;;;16.83;10.68;;;10.00;84.90;;;;;;4992665;28;20065;-87
2021/11/12 09:57:25;;;;;;;16.70;9.82;;;10.00;84.80;;;;;;4986835;28;20041;-88
2021/11/12 09:59:54;;;;;;;16.77;11.25;;;10.10;84.80;;;;;;4988857;28;20041;-89
2021/11/12 10:02:21;;;;;;;18.38;11.48;;;10.10;85.10;;;;;;4990143;28;20393;-89
2021/11/12 10:04:48;;;;;;;17.45;11.57;;;10.20;84.20;;;;;;4989544;28;20061;-88
2021/11/12 10:07:16;;;;;;;14.90;10.35;;;10.20;84.20;;;;;;4987392;28;20042;-89
2021/11/12 10:12:49;;;;;;;17.60;10.93;;;10.40;82.70;;;;;;5014017;28;20037;-88
2021/11/12 10:15:17;;;;;;;17.88;11.60;;;10.40;82.70;;;;;;4996097;28;20037;-89
2021/11/12 10:17:48;;;;;;;17.50;12.10;;;10.30;82.20;;;;;;4997463;28;20087;-86
2021/11/12 10:20:20;;;;;;;23.83;13.15;;;10.40;81.90;;;;;;4978693;28;20069;-87
2021/11/12 10:22:48;;;;;;;20.42;10.93;;;10.40;81.90;;;;;;4991061;28;20096;-86
2021/11/12 10:25:15;;;;;;;23.05;12.88;;;10.40;81.80;;;;;;5010377;28;20037;-85
2021/11/12 10:27:51;;;;;;;15.52;12.27;;;10.40;81.30;;;;;;4990791;28;20041;-86
2021/11/12 10:30:24;;;;;;;20.73;12.40;;;10.30;80.20;;;;;;4990992;28;20059;-84
2021/11/12 10:32:56;;;;;;;21.60;13.00;;;10.30;79.60;;;;;;4985450;28;20030;-90
2021/11/12 10:35:29;;;;;;;19.45;11.80;;;10.30;79.40;;;;;;4989552;28;20514;-88
2021/11/12 10:38:15;;;;;;;18.38;11.93;;;10.30;79.60;;;;;;4983724;28;20037;-87
2021/11/12 10:40:41;;;;;;;18.13;10.98;;;10.30;79.20;;;;;;4988176;28;20030;-86
2021/11/12 10:43:07;;;;;;;15.38;9.80;;;10.30;79.80;;;;;;4991511;28;20045;-86
2021/11/12 10:45:36;;;;;;;20.17;12.48;;;10.30;79.60;;;;;;5012236;28;20042;-86
2021/11/12 10:48:07;;;;;;;20.52;12.38;;;10.40;78.90;;;;;;4993599;28;20049;-85
2021/11/12 10:50:38;;;;;;;18.33;11.38;;;10.40;77.80;;;;;;5000802;28;20040;-85
2021/11/12 10:53:15;;;;;;;21.85;11.45;;;10.40;77.50;;;;;;4991867;28;20497;-86
2021/11/12 10:55:43;;;;;;;16.15;9.68;;;10.30;76.80;;;;;;4995432;28;20037;-85
2021/11/12 10:58:11;;;;;;;13.88;9.63;;;10.30;78.00;;;;;;4996755;28;20122;-86
2021/11/12 11:00:42;;;;;;;14.48;9.35;;;10.40;77.90;;;;;;4996097;28;20491;-85
2021/11/12 11:03:22;;;;;;;22.70;10.27;;;10.50;77.60;;;;;;5000112;28;20358;-86
2021/11/12 11:05:55;;;;;;;14.23;10.02;;;10.50;77.10;;;;;;5016365;28;20492;-86
2021/11/12 11:08:28;;;;;;;13.93;8.98;;;10.60;78.00;;;;;;4997213;28;20496;-86
2021/11/12 11:11:04;;;;;;;19.33;10.18;;;10.60;77.60;;;;;;4996854;28;20482;-86
2021/11/12 11:13:33;;;;;;;15.43;9.50;;;10.70;77.20;;;;;;4998534;28;20028;-88
2021/11/12 11:16:05;;;;;;;17.48;11.50;;;10.70;77.30;;;;;;4985412;28;20453;-87
2021/11/12 11:18:43;;;;;;;17.15;11.57;;;10.70;75.40;;;;;;5003978;28;20021;-87
2021/11/12 11:21:11;;;;;;;23.45;12.23;;;10.70;76.40;;;;;;4997964;28;20046;-89
2021/11/12 11:23:49;;;;;;;16.42;9.85;;;10.70;75.70;;;;;;4998191;28;20161;-89
2021/11/12 11:26:37;;;;;;;23.90;12.65;;;10.80;75.80;;;;;;5000353;28;20045;-89
2021/11/12 11:29:05;;;;;;;16.50;10.65;;;10.80;75.10;;;;;;5000107;28;20026;-87
2021/11/12 11:31:32;;;;;;;19.55;11.93;;;10.80;75.60;;;;;;4998155;28;20086;-87
2021/11/12 11:33:59;;;;;;;19.23;11.60;;;10.80;76.10;;;;;;4997587;28;20112;-87
2021/11/12 11:36:28;;;;;;;14.88;10.93;;;10.80;76.50;;;;;;4997527;28;20045;-87
2021/11/12 11:38:56;;;;;;;20.50;12.65;;;10.90;76.10;;;;;;4997841;28;20026;-88
2021/11/12 11:41:24;;;;;;;18.42;11.90;;;10.90;75.30;;;;;;4997775;28;20076;-87
2021/11/12 11:43:51;;;;;;;20.83;13.13;;;10.90;75.50;;;;;;4997921;28;20041;-90
2021/11/12 11:46:24;;;;;;;25.90;13.18;;;10.90;75.50;;;;;;4996971;28;20044;-87
2021/11/12 11:48:52;;;;;;;20.95;13.45;;;10.90;75.20;;;;;;5015317;28;20065;-87
2021/11/12 11:51:29;;;;;;;22.30;13.05;;;10.80;75.60;;;;;;4996790;28;20112;-87
2021/11/12 11:54:04;;;;;;;24.15;13.57;;;10.80;75.50;;;;;;4997536;28;20076;-86
2021/11/12 11:56:39;;;;;;;17.88;11.18;;;10.80;75.80;;;;;;4997578;28;20125;-87
2021/11/12 11:59:25;;;;;;;21.17;11.70;;;10.80;76.90;;;;;;4998797;28;20083;-90
2021/11/12 12:01:55;;;;;;;17.67;11.07;;;10.90;76.20;;;;;;5012373;28;20022;-86
2021/11/12 12:04:22;;;;;;;17.90;11.02;;;10.90;76.60;;;;;;5015807;28;20037;-85
2021/11/12 12:07:04;;;;;;;22.15;11.60;;;11.00;76.50;;;;;;4997262;28;20045;-87
2021/11/12 12:09:49;;;;;;;22.98;13.35;;;11.10;76.00;;;;;;4996997;28;20034;-85
2021/11/12 12:12:35;;;;;;;20.50;12.55;;;11.10;75.20;;;;;;4998049;28;20461;-86
2021/11/12 12:15:04;;;;;;;29.65;12.82;;;11.10;75.10;;;;;;4978656;28;20034;-85
2021/11/12 12:17:34;;;;;;;17.33;9.88;;;11.20;75.90;;;;;;4996972;28;20042;-86
2021/11/12 12:34:34;;;;;;;19.45;12.30;;;11.50;75.10;;;;;;5017736;28;20026;-86
2021/11/12 13:22:56;;;;;;;17.30;9.90;;;11.50;71.10;;;;;;5013343;28;20053;-85
2021/11/12 13:25:28;;;;;;;16.05;9.57;;;11.50;71.50;;;;;;4993585;28;20021;-87
2021/11/12 13:28:18;;;;;;;17.33;10.50;;;11.40;71.50;;;;;;4995498;28;20026;-86
2021/11/12 13:30:52;;;;;;;15.82;9.63;;;11.40;71.90;;;;;;5006934;28;20377;-88
2021/11/12 13:33:49;;;;;;;12.43;7.60;;;11.40;72.30;;;;;;4992151;28;20089;-87
2021/11/12 13:36:20;;;;;;;15.02;9.27;;;11.40;72.80;;;;;;5013421;28;20532;-86
2021/11/12 13:38:57;;;;;;;16.65;9.43;;;11.40;72.80;;;;;;4999340;28;20033;-88
2021/11/12 13:41:29;;;;;;;24.52;13.57;;;11.40;72.50;;;;;;5009197;28;20026;-87
2021/11/12 13:44:08;;;;;;;18.40;11.50;;;11.40;72.60;;;;;;4994761;28;20037;-86
2021/11/12 13:46:53;;;;;;;21.98;11.88;;;11.50;72.70;;;;;;4992625;28;20049;-89
2021/11/12 13:49:40;;;;;;;16.08;10.98;;;11.60;72.30;;;;;;4996429;28;20029;-88
2021/11/12 13:52:08;;;;;;;16.80;10.73;;;11.60;72.70;;;;;;4996590;28;20485;-88
2021/11/12 13:54:53;;;;;;;17.20;9.95;;;11.70;72.40;;;;;;4995594;28;20393;-87
2021/11/12 13:57:25;;;;;;;15.00;10.43;;;11.70;72.60;;;;;;5010213;28;20556;-88
2021/11/12 14:00:01;;;;;;;16.83;10.13;;;11.60;72.40;;;;;;4995094;28;20025;-89
2021/11/12 14:02:28;;;;;;;16.83;11.10;;;11.50;72.50;;;;;;4995546;28;20119;-86
2021/11/12 14:05:06;;;;;;;13.75;8.43;;;11.40;72.90;;;;;;5013118;28;20484;-88
2021/11/12 14:07:32;;;;;;;15.07;9.82;;;11.30;73.10;;;;;;4995355;28;20021;-88
2021/11/12 14:10:07;;;;;;;16.48;10.40;;;11.20;73.60;;;;;;4994479;28;20525;-87
2021/11/12 14:12:33;;;;;;;14.85;9.80;;;11.20;73.90;;;;;;4995126;28;20120;-88
2021/11/12 14:15:10;;;;;;;16.75;10.70;;;11.10;74.20;;;;;;4994062;28;20068;-87
2021/11/12 14:17:51;;;;;;;16.98;9.82;;;11.10;74.50;;;;;;4996807;28;20041;-87
2021/11/12 14:20:24;;;;;;;15.15;9.13;;;11.00;74.70;;;;;;5001381;28;20034;-87
2021/11/12 14:23:06;;;;;;;15.82;8.85;;;11.00;75.10;;;;;;4993514;28;20503;-86
2021/11/12 14:28:39;;;;;;;11.00;6.95;;;10.90;75.60;;;;;;5010833;28;20030;-86
2021/11/12 14:31:06;;;;;;;13.70;8.55;;;11.00;75.90;;;;;;5016159;28;20030;-85
2021/11/12 14:34:03;;;;;;;15.90;9.65;;;11.00;76.10;;;;;;4994818;28;20125;-86
2021/11/12 14:36:45;;;;;;;16.77;9.65;;;11.00;76.20;;;;;;4996205;28;20037;-86
2021/11/12 14:45:12;;;;;;;14.60;9.07;;;10.90;76.90;;;;;;5012971;28;20057;-88
2021/11/12 14:50:36;;;;;;;19.98;9.90;;;10.90;77.30;;;;;;5009017;28;20370;-86
2021/11/12 14:53:30;;;;;;;15.95;9.98;;;10.90;77.60;;;;;;4995722;28;20029;-86
2021/11/12 14:56:12;;;;;;;;;;;10.80;77.80;;;;;;4997189;28;20053;-85
2021/11/12 14:58:45;;;;;;;17.17;8.63;;;10.80;78.30;;;;;;4994544;28;19940;-85
2021/11/12 15:01:14;;;;;;;17.15;10.10;;;10.80;78.20;;;;;;4998640;28;20030;-83
2021/11/12 15:03:42;;;;;;;17.25;9.93;;;10.80;78.30;;;;;;4991656;28;20113;-85
2021/11/12 15:06:13;;;;;;;15.50;9.13;;;10.80;78.50;;;;;;4994348;28;20057;-85
2021/11/12 15:09:17;;;;;;;19.73;10.35;;;10.80;78.70;;;;;;5012321;28;20424;-84
2021/11/12 15:11:33;;;;;;;17.17;10.13;;;10.80;78.90;;;;;;5004196;28;20046;-85
2021/11/12 15:14:11;;;;;;;13.90;9.48;;;10.80;79.20;;;;;;5011687;28;20041;-86
2021/11/12 15:16:39;;;;;;;14.95;8.73;;;10.80;79.50;;;;;;4993960;28;20466;-84
2021/11/12 15:19:08;;;;;;;18.23;11.95;;;10.70;79.60;;;;;;4988986;28;20073;-86
2021/11/12 15:21:44;;;;;;;12.95;8.05;;;10.80;79.80;;;;;;4993568;28;20504;-87
2021/11/12 15:24:27;;;;;;;16.23;9.23;;;10.70;79.90;;;;;;4993985;28;20034;-87
2021/11/12 15:27:03;;;;;;;17.98;10.65;;;10.70;80.10;;;;;;4993906;28;20030;-87
2021/11/12 15:29:38;;;;;;;20.92;13.15;;;10.70;80.30;;;;;;4999550;28;20029;-88
2021/11/12 15:32:13;;;;;;;14.85;9.05;;;10.70;80.50;;;;;;5006960;28;20029;-87
2021/11/12 15:35:23;;;;;;;16.42;11.48;;;10.70;80.60;;;;;;4992463;28;20049;-87
2021/11/12 15:37:38;;;;;;;18.23;11.85;;;10.70;80.70;;;;;;5007901;28;20041;-87
2021/11/12 15:40:30;;;;;;;20.55;12.85;;;10.70;80.90;;;;;;5003051;28;20502;-88
2021/11/12 15:48:12;;;;;;;24.42;14.32;;;10.70;81.00;;;;;;5017825;28;20036;-87
2021/11/12 15:56:22;;;;;;;20.92;13.73;;;10.70;81.30;;;;;;5023747;28;20036;-88
2021/11/12 15:59:06;;;;;;;18.42;10.35;;;10.70;81.50;;;;;;4989524;28;20049;-88
2021/11/12 16:04:50;;;;;;;19.42;11.07;;;10.70;81.80;;;;;;5019932;28;20076;-87
2021/11/12 16:18:18;;;;;;;12.45;9.18;;;10.40;82.10;;;;;;4981895;28;20080;-90
2021/11/12 16:26:15;;;;;;;20.42;11.35;;;10.10;83.20;;;;;;4989902;28;20473;-87
2021/11/12 16:28:57;;;;;;;14.57;9.98;;;10.00;83.60;;;;;;5004639;28;20053;-89
2021/11/12 16:31:28;;;;;;;18.35;8.55;;;9.90;83.80;;;;;;5003319;28;20040;-92
2021/11/12 16:33:57;;;;;;;20.42;12.07;;;9.80;84.20;;;;;;4987668;28;20029;-89
2021/11/12 16:36:23;;;;;;;22.08;12.80;;;9.80;85.00;;;;;;5006053;28;20030;-88
2021/11/12 16:38:50;;;;;;;19.77;12.60;;;9.70;86.00;;;;;;5006305;28;20061;-90
2021/11/12 16:41:26;;;;;;;27.60;11.60;;;9.60;86.20;;;;;;5004797;28;20100;-90
2021/11/12 16:50:09;;;;;;;21.65;11.45;;;9.40;87.80;;;;;;4932904;29;20032;-90
2021/11/12 16:55:26;;;;;;;19.73;11.82;;;9.30;88.90;;;;;;4991280;28;20026;-93
2021/11/12 17:03:09;;;;;;;19.90;10.95;;;9.20;90.10;;;;;;5026654;28;20125;-93
2021/11/12 17:08:15;;;;;;;16.83;9.55;;;9.10;90.60;;;;;;5018012;28;20026;-91
2021/11/12 17:47:06;;;;;;;19.00;8.95;;;8.50;93.40;;;;;;5018555;28;19916;-92
2021/11/12 18:01:44;;;;;;;15.75;9.70;;;8.20;93.70;;;;;;4982521;28;20072;-92
2021/11/12 18:07:20;;;;;;;25.23;14.52;;;8.10;94.20;;;;;;5014919;28;20161;-90
2021/11/12 18:10:16;;;;;;;19.80;11.68;;;8.10;95.90;;;;;;5014327;28;20041;-91
2021/11/12 18:16:07;;;;;;;23.25;13.40;;;8.10;96.00;;;;;;5000285;28;20052;-92
2021/11/12 21:48:18;;;;;;;13.70;6.70;;;7.60;95.00;;;;;;4963526;28;20083;-89
2021/11/12 21:50:44;;;;;;;10.43;7.05;;;7.60;95.20;;;;;;4978143;28;20064;-89
2021/11/12 21:53:10;;;;;;;12.10;6.55;;;7.60;95.00;;;;;;4978399;28;20030;-89
2021/11/12 21:55:36;;;;;;;11.48;7.55;;;7.60;94.40;;;;;;4984724;28;20031;-89
2021/11/12 21:58:03;;;;;;;11.13;7.57;;;7.60;94.40;;;;;;4991482;28;20035;-88
2021/11/12 22:00:30;;;;;;;17.77;9.40;;;7.60;94.40;;;;;;4992314;28;20042;-89
2021/11/12 22:02:56;;;;;;;12.52;7.60;;;7.60;94.00;;;;;;4992487;28;20026;-89
2021/11/12 22:05:22;;;;;;;14.68;8.10;;;7.60;93.90;;;;;;4992943;28;20363;-90
2021/11/12 22:07:49;;;;;;;15.88;8.00;;;7.50;93.80;;;;;;4992673;28;20033;-90
2021/11/12 22:10:15;;;;;;;13.85;8.30;;;7.50;93.90;;;;;;4992152;28;20046;-90
2021/11/12 22:12:41;;;;;;;10.13;5.53;;;7.50;94.00;;;;;;4981143;28;20030;-89
2021/11/12 22:15:07;;;;;;;11.38;7.28;;;7.50;94.00;;;;;;4978233;28;20117;-89
2021/11/12 22:17:33;;;;;;;9.32;5.90;;;7.50;94.10;;;;;;4977514;28;20474;-89
2021/11/12 22:20:00;;;;;;;12.75;6.07;;;7.50;94.20;;;;;;4977910;28;20457;-89
2021/11/12 22:22:26;;;;;;;15.38;8.23;;;7.50;94.30;;;;;;4995268;28;20086;-89
2021/11/12 22:24:52;;;;;;;11.57;6.28;;;7.50;94.40;;;;;;4978070;28;20042;-89
2021/11/12 22:27:17;;;;;;;16.45;6.93;;;7.50;94.40;;;;;;4977718;28;20041;-89
2021/11/12 22:29:43;;;;;;;10.70;6.72;;;7.50;94.40;;;;;;4977486;28;20113;-89
2021/11/12 22:32:09;;;;;;;13.60;6.55;;;7.50;94.30;;;;;;4977451;28;20030;-89
2021/11/12 22:34:35;;;;;;;11.30;6.90;;;7.50;93.70;;;;;;4995319;28;20026;-89
2021/11/12 22:37:00;;;;;;;10.88;6.40;;;7.40;93.20;;;;;;4977134;28;20038;-89
2021/11/12 22:39:26;;;;;;;10.05;5.53;;;7.40;93.20;;;;;;4977531;28;20438;-89
2021/11/12 22:41:52;;;;;;;10.63;4.80;;;7.40;93.40;;;;;;4977712;28;20034;-89
2021/11/12 22:44:18;;;;;;;10.10;5.22;;;7.40;93.60;;;;;;4977582;28;20022;-89